sensor_id;sensor_type;location;lat;lon;timestamp;pressure;altitude;pressure_sealevel;temperature;humidity
50710;BME280;37033;49.994;21.992;2023-02-12T00:02:04;100284.43;;;1.74;93.79
50710;BME280;37033;49.994;21.992;2023-02-12T00:04:54;100284.10;;;1.76;93.86
50710;BME280;37033;49.994;21.992;2023-02-12T00:07:44;100283.40;;;1.76;93.90
50710;BME280;37033;49.994;21.992;2023-02-12T00:10:34;100286.55;;;1.75;93.87
50710;BME280;37033;49.994;21.992;2023-02-12T00:13:23;100290.25;;;1.75;93.98
50710;BME280;37033;49.994;21.992;2023-02-12T00:16:14;100295.19;;;1.74;93.91
50710;BME280;37033;49.994;21.992;2023-02-12T00:19:05;100296.85;;;1.74;93.83
50710;BME280;37033;49.994;21.992;2023-02-12T00:21:55;100299.48;;;1.74;94.03
50710;BME280;37033;49.994;21.992;2023-02-12T00:24:45;100299.67;;;1.75;94.15
50710;BME280;37033;49.994;21.992;2023-02-12T00:27:35;100288.79;;;1.77;94.33
50710;BME280;37033;49.994;21.992;2023-02-12T00:30:24;100296.56;;;1.76;94.42
50710;BME280;37033;49.994;21.992;2023-02-12T00:33:14;100297.84;;;1.76;94.23
50710;BME280;37033;49.994;21.992;2023-02-12T00:36:05;100297.97;;;1.76;94.42
50710;BME280;37033;49.994;21.992;2023-02-12T00:38:55;100307.63;;;1.76;94.55
50710;BME280;37033;49.994;21.992;2023-02-12T00:41:45;100313.14;;;1.77;94.48
50710;BME280;37033;49.994;21.992;2023-02-12T00:44:35;100322.34;;;1.78;94.64
50710;BME280;37033;49.994;21.992;2023-02-12T00:47:25;100327.12;;;1.76;94.52
50710;BME280;37033;49.994;21.992;2023-02-12T00:50:15;100331.35;;;1.77;94.65
50710;BME280;37033;49.994;21.992;2023-02-12T00:53:05;100340.80;;;1.77;94.69
50710;BME280;37033;49.994;21.992;2023-02-12T00:55:54;100344.45;;;1.76;94.76
50710;BME280;37033;49.994;21.992;2023-02-12T00:58:44;100344.23;;;1.78;94.82
50710;BME280;37033;49.994;21.992;2023-02-12T01:01:34;100340.73;;;1.78;94.88
50710;BME280;37033;49.994;21.992;2023-02-12T01:04:23;100337.21;;;1.77;94.73
50710;BME280;37033;49.994;21.992;2023-02-12T01:07:13;100344.86;;;1.78;94.86
50710;BME280;37033;49.994;21.992;2023-02-12T01:10:02;100344.46;;;1.78;94.95
50710;BME280;37033;49.994;21.992;2023-02-12T01:12:52;100352.86;;;1.78;94.85
50710;BME280;37033;49.994;21.992;2023-02-12T01:15:42;100357.45;;;1.79;94.89
50710;BME280;37033;49.994;21.992;2023-02-12T01:18:31;100364.16;;;1.80;94.94
50710;BME280;37033;49.994;21.992;2023-02-12T01:21:23;100359.06;;;1.79;94.90
50710;BME280;37033;49.994;21.992;2023-02-12T01:24:13;100361.85;;;1.79;94.90
50710;BME280;37033;49.994;21.992;2023-02-12T01:27:03;100365.88;;;1.80;95.05
50710;BME280;37033;49.994;21.992;2023-02-12T01:29:52;100368.15;;;1.81;94.93
50710;BME280;37033;49.994;21.992;2023-02-12T01:32:42;100371.00;;;1.81;94.92
50710;BME280;37033;49.994;21.992;2023-02-12T01:35:32;100382.71;;;1.82;94.85
50710;BME280;37033;49.994;21.992;2023-02-12T01:38:21;100390.45;;;1.83;94.90
50710;BME280;37033;49.994;21.992;2023-02-12T01:41:15;100392.80;;;1.84;94.94
50710;BME280;37033;49.994;21.992;2023-02-12T01:44:14;100397.20;;;1.87;95.13
50710;BME280;37033;49.994;21.992;2023-02-12T01:47:05;100396.30;;;1.87;95.31
50710;BME280;37033;49.994;21.992;2023-02-12T01:49:55;100393.56;;;1.91;95.46
50710;BME280;37033;49.994;21.992;2023-02-12T01:52:47;100391.67;;;1.92;95.46
50710;BME280;37033;49.994;21.992;2023-02-12T01:55:37;100384.73;;;1.93;95.58
50710;BME280;37033;49.994;21.992;2023-02-12T01:58:30;100384.73;;;1.93;95.38
50710;BME280;37033;49.994;21.992;2023-02-12T02:01:25;100391.27;;;1.94;95.24
50710;BME280;37033;49.994;21.992;2023-02-12T02:04:18;100393.92;;;1.94;95.27
50710;BME280;37033;49.994;21.992;2023-02-12T02:07:09;100401.03;;;1.94;95.21
50710;BME280;37033;49.994;21.992;2023-02-12T02:09:59;100394.33;;;1.95;95.22
50710;BME280;37033;49.994;21.992;2023-02-12T02:12:50;100398.85;;;1.95;95.10
50710;BME280;37033;49.994;21.992;2023-02-12T02:16:05;100406.77;;;1.94;95.01
50710;BME280;37033;49.994;21.992;2023-02-12T02:19:03;100417.99;;;1.93;94.86
50710;BME280;37033;49.994;21.992;2023-02-12T02:22:21;100422.86;;;1.92;94.78
50710;BME280;37033;49.994;21.992;2023-02-12T02:25:38;100432.15;;;1.91;94.70
50710;BME280;37033;49.994;21.992;2023-02-12T02:28:52;100427.68;;;1.89;94.58
50710;BME280;37033;49.994;21.992;2023-02-12T02:31:47;100437.23;;;1.88;94.60
50710;BME280;37033;49.994;21.992;2023-02-12T02:34:46;100444.90;;;1.89;94.75
50710;BME280;37033;49.994;21.992;2023-02-12T02:37:42;100450.33;;;1.88;94.78
50710;BME280;37033;49.994;21.992;2023-02-12T02:40:39;100454.27;;;1.88;94.99
50710;BME280;37033;49.994;21.992;2023-02-12T02:43:34;100459.27;;;1.88;94.91
50710;BME280;37033;49.994;21.992;2023-02-12T02:46:31;100464.98;;;1.88;94.95
50710;BME280;37033;49.994;21.992;2023-02-12T02:49:26;100463.58;;;1.89;95.14
50710;BME280;37033;49.994;21.992;2023-02-12T02:52:21;100472.27;;;1.90;94.98
50710;BME280;37033;49.994;21.992;2023-02-12T02:55:15;100475.27;;;1.90;95.02
50710;BME280;37033;49.994;21.992;2023-02-12T02:58:08;100482.69;;;1.91;94.95
50710;BME280;37033;49.994;21.992;2023-02-12T03:01:04;100486.35;;;1.92;95.00
50710;BME280;37033;49.994;21.992;2023-02-12T03:03:57;100494.77;;;1.92;94.90
50710;BME280;37033;49.994;21.992;2023-02-12T03:06:53;100497.28;;;1.92;94.81
50710;BME280;37033;49.994;21.992;2023-02-12T03:09:48;100503.44;;;1.91;94.73
50710;BME280;37033;49.994;21.992;2023-02-12T03:12:45;100508.89;;;1.90;94.64
50710;BME280;37033;49.994;21.992;2023-02-12T03:15:45;100522.30;;;1.90;94.73
50710;BME280;37033;49.994;21.992;2023-02-12T03:18:38;100528.58;;;1.90;94.64
50710;BME280;37033;49.994;21.992;2023-02-12T03:21:32;100535.77;;;1.90;94.63
50710;BME280;37033;49.994;21.992;2023-02-12T03:24:28;100541.46;;;1.88;94.47
50710;BME280;37033;49.994;21.992;2023-02-12T03:27:18;100545.67;;;1.87;94.31
50710;BME280;37033;49.994;21.992;2023-02-12T03:30:11;100545.60;;;1.85;94.27
50710;BME280;37033;49.994;21.992;2023-02-12T03:33:06;100548.91;;;1.84;94.18
50710;BME280;37033;49.994;21.992;2023-02-12T03:36:04;100558.17;;;1.82;94.03
50710;BME280;37033;49.994;21.992;2023-02-12T03:38:58;100560.30;;;1.82;94.12
50710;BME280;37033;49.994;21.992;2023-02-12T03:42:00;100568.38;;;1.82;94.20
50710;BME280;37033;49.994;21.992;2023-02-12T03:44:53;100580.08;;;1.81;94.20
50710;BME280;37033;49.994;21.992;2023-02-12T03:47:49;100582.23;;;1.81;94.23
50710;BME280;37033;49.994;21.992;2023-02-12T03:50:45;100588.86;;;1.81;94.15
50710;BME280;37033;49.994;21.992;2023-02-12T03:53:36;100611.96;;;1.82;94.17
50710;BME280;37033;49.994;21.992;2023-02-12T03:56:31;100627.61;;;1.79;93.28
50710;BME280;37033;49.994;21.992;2023-02-12T03:59:24;100635.89;;;1.64;91.54
50710;BME280;37033;49.994;21.992;2023-02-12T04:02:15;100647.15;;;1.52;90.22
50710;BME280;37033;49.994;21.992;2023-02-12T04:05:14;100654.69;;;1.39;89.09
50710;BME280;37033;49.994;21.992;2023-02-12T04:08:07;100657.89;;;1.26;88.15
50710;BME280;37033;49.994;21.992;2023-02-12T04:11:04;100668.46;;;1.16;87.65
50710;BME280;37033;49.994;21.992;2023-02-12T04:14:07;100669.45;;;1.07;87.03
50710;BME280;37033;49.994;21.992;2023-02-12T04:17:08;100672.23;;;0.97;87.18
50710;BME280;37033;49.994;21.992;2023-02-12T04:20:06;100681.08;;;0.93;87.09
50710;BME280;37033;49.994;21.992;2023-02-12T04:23:08;100694.69;;;0.87;87.15
50710;BME280;37033;49.994;21.992;2023-02-12T04:26:07;100699.41;;;0.82;86.35
50710;BME280;37033;49.994;21.992;2023-02-12T04:29:10;100709.09;;;0.76;86.19
50710;BME280;37033;49.994;21.992;2023-02-12T04:32:09;100723.64;;;0.71;86.12
50710;BME280;37033;49.994;21.992;2023-02-12T04:35:06;100727.56;;;0.67;85.53
50710;BME280;37033;49.994;21.992;2023-02-12T04:38:04;100740.40;;;0.64;85.15
50710;BME280;37033;49.994;21.992;2023-02-12T04:40:57;100742.52;;;0.60;85.05
50710;BME280;37033;49.994;21.992;2023-02-12T04:43:47;100747.20;;;0.57;85.03
50710;BME280;37033;49.994;21.992;2023-02-12T04:46:37;100751.20;;;0.55;84.84
50710;BME280;37033;49.994;21.992;2023-02-12T04:49:27;100758.63;;;0.52;84.87
50710;BME280;37033;49.994;21.992;2023-02-12T04:52:17;100759.55;;;0.49;84.82
50710;BME280;37033;49.994;21.992;2023-02-12T04:55:07;100761.65;;;0.46;84.86
50710;BME280;37033;49.994;21.992;2023-02-12T04:57:56;100778.27;;;0.44;84.88
50710;BME280;37033;49.994;21.992;2023-02-12T05:00:46;100770.52;;;0.41;84.92
50710;BME280;37033;49.994;21.992;2023-02-12T05:03:36;100777.70;;;0.38;84.97
50710;BME280;37033;49.994;21.992;2023-02-12T05:06:26;100793.75;;;0.34;84.87
50710;BME280;37033;49.994;21.992;2023-02-12T05:09:19;100786.96;;;0.33;84.95
50710;BME280;37033;49.994;21.992;2023-02-12T05:12:09;100792.73;;;0.30;84.94
50710;BME280;37033;49.994;21.992;2023-02-12T05:14:59;100793.75;;;0.27;85.06
50710;BME280;37033;49.994;21.992;2023-02-12T05:17:48;100798.17;;;0.25;84.84
50710;BME280;37033;49.994;21.992;2023-02-12T05:20:38;100797.33;;;0.23;84.74
50710;BME280;37033;49.994;21.992;2023-02-12T05:23:28;100802.02;;;0.20;84.92
50710;BME280;37033;49.994;21.992;2023-02-12T05:26:20;100813.33;;;0.19;84.68
50710;BME280;37033;49.994;21.992;2023-02-12T05:29:10;100816.54;;;0.15;84.54
50710;BME280;37033;49.994;21.992;2023-02-12T05:31:59;100822.08;;;0.13;84.43
50710;BME280;37033;49.994;21.992;2023-02-12T05:34:49;100830.63;;;0.11;84.35
50710;BME280;37033;49.994;21.992;2023-02-12T05:37:39;100837.52;;;0.08;84.51
50710;BME280;37033;49.994;21.992;2023-02-12T05:40:28;100846.15;;;0.07;84.21
50710;BME280;37033;49.994;21.992;2023-02-12T05:43:18;100854.94;;;0.05;84.29
50710;BME280;37033;49.994;21.992;2023-02-12T05:46:09;100859.91;;;0.03;84.43
50710;BME280;37033;49.994;21.992;2023-02-12T05:48:59;100869.52;;;0.01;84.30
50710;BME280;37033;49.994;21.992;2023-02-12T05:51:48;100874.52;;;0.01;84.15
50710;BME280;37033;49.994;21.992;2023-02-12T05:54:38;100886.97;;;-0.01;83.93
50710;BME280;37033;49.994;21.992;2023-02-12T05:57:27;100899.17;;;-0.04;83.61
50710;BME280;37033;49.994;21.992;2023-02-12T06:00:18;100909.83;;;-0.06;83.65
50710;BME280;37033;49.994;21.992;2023-02-12T06:03:08;100922.74;;;-0.07;83.49
50710;BME280;37033;49.994;21.992;2023-02-12T06:05:58;100922.05;;;-0.09;83.44
50710;BME280;37033;49.994;21.992;2023-02-12T06:08:49;100924.76;;;-0.09;83.36
50710;BME280;37033;49.994;21.992;2023-02-12T06:11:38;100935.90;;;-0.10;83.01
50710;BME280;37033;49.994;21.992;2023-02-12T06:14:28;100937.66;;;-0.12;82.91
50710;BME280;37033;49.994;21.992;2023-02-12T06:17:18;100945.29;;;-0.14;82.80
50710;BME280;37033;49.994;21.992;2023-02-12T06:20:08;100949.55;;;-0.15;82.75
50710;BME280;37033;49.994;21.992;2023-02-12T06:22:58;100953.29;;;-0.17;82.84
50710;BME280;37033;49.994;21.992;2023-02-12T06:25:48;100963.23;;;-0.17;82.70
50710;BME280;37033;49.994;21.992;2023-02-12T06:28:37;100970.81;;;-0.18;82.48
50710;BME280;37033;49.994;21.992;2023-02-12T06:31:28;100980.69;;;-0.19;82.33
50710;BME280;37033;49.994;21.992;2023-02-12T06:34:18;100983.18;;;-0.19;82.10
50710;BME280;37033;49.994;21.992;2023-02-12T06:37:08;100993.45;;;-0.18;81.62
50710;BME280;37033;49.994;21.992;2023-02-12T06:39:57;100995.90;;;-0.20;80.29
50710;BME280;37033;49.994;21.992;2023-02-12T06:42:47;100985.05;;;-0.21;79.51
50710;BME280;37033;49.994;21.992;2023-02-12T06:45:37;100987.58;;;-0.21;79.35
50710;BME280;37033;49.994;21.992;2023-02-12T06:48:26;100989.22;;;-0.21;79.19
50710;BME280;37033;49.994;21.992;2023-02-12T06:51:17;100996.50;;;-0.21;79.35
50710;BME280;37033;49.994;21.992;2023-02-12T06:54:14;101005.54;;;-0.20;79.18
50710;BME280;37033;49.994;21.992;2023-02-12T06:57:04;101007.83;;;-0.20;79.01
50710;BME280;37033;49.994;21.992;2023-02-12T06:59:54;101006.28;;;-0.18;78.84
50710;BME280;37033;49.994;21.992;2023-02-12T07:02:43;101008.01;;;-0.18;78.31
50710;BME280;37033;49.994;21.992;2023-02-12T07:05:33;101017.23;;;-0.17;78.36
50710;BME280;37033;49.994;21.992;2023-02-12T07:08:24;101027.20;;;-0.17;78.50
50710;BME280;37033;49.994;21.992;2023-02-12T07:11:14;101034.02;;;-0.15;78.16
50710;BME280;37033;49.994;21.992;2023-02-12T07:14:04;101036.86;;;-0.15;77.93
50710;BME280;37033;49.994;21.992;2023-02-12T07:16:54;101032.71;;;-0.15;77.27
50710;BME280;37033;49.994;21.992;2023-02-12T07:19:44;101035.56;;;-0.15;76.78
50710;BME280;37033;49.994;21.992;2023-02-12T07:22:36;101038.97;;;-0.15;77.27
50710;BME280;37033;49.994;21.992;2023-02-12T07:25:25;101044.73;;;-0.14;77.46
50710;BME280;37033;49.994;21.992;2023-02-12T07:28:16;101043.56;;;-0.13;77.57
50710;BME280;37033;49.994;21.992;2023-02-12T07:31:10;101041.42;;;-0.13;77.45
50710;BME280;37033;49.994;21.992;2023-02-12T07:34:00;101040.33;;;-0.13;77.47
50710;BME280;37033;49.994;21.992;2023-02-12T07:36:50;101043.00;;;-0.12;77.52
50710;BME280;37033;49.994;21.992;2023-02-12T07:39:39;101047.71;;;-0.11;77.13
50710;BME280;37033;49.994;21.992;2023-02-12T07:42:29;101045.38;;;-0.11;77.19
50710;BME280;37033;49.994;21.992;2023-02-12T07:45:18;101050.46;;;-0.10;76.89
50710;BME280;37033;49.994;21.992;2023-02-12T07:48:08;101053.94;;;-0.09;76.16
50710;BME280;37033;49.994;21.992;2023-02-12T07:50:57;101049.58;;;-0.10;75.82
50710;BME280;37033;49.994;21.992;2023-02-12T07:53:51;101052.71;;;-0.09;76.23
50710;BME280;37033;49.994;21.992;2023-02-12T07:56:42;101056.91;;;-0.06;76.16
50710;BME280;37033;49.994;21.992;2023-02-12T07:59:34;101059.81;;;-0.05;76.40
50710;BME280;37033;49.994;21.992;2023-02-12T08:02:23;101063.83;;;-0.02;76.46
50710;BME280;37033;49.994;21.992;2023-02-12T08:05:13;101064.30;;;0.01;76.68
50710;BME280;37033;49.994;21.992;2023-02-12T08:08:02;101066.38;;;0.04;76.54
50710;BME280;37033;49.994;21.992;2023-02-12T08:10:52;101066.39;;;0.06;76.55
50710;BME280;37033;49.994;21.992;2023-02-12T08:13:44;101062.83;;;0.08;76.45
50710;BME280;37033;49.994;21.992;2023-02-12T08:16:36;101070.94;;;0.09;76.21
50710;BME280;37033;49.994;21.992;2023-02-12T08:19:26;101083.30;;;0.10;76.07
50710;BME280;37033;49.994;21.992;2023-02-12T08:22:16;101086.65;;;0.10;76.17
50710;BME280;37033;49.994;21.992;2023-02-12T08:25:07;101085.45;;;0.12;76.55
50710;BME280;37033;49.994;21.992;2023-02-12T08:27:56;101087.17;;;0.15;76.47
50710;BME280;37033;49.994;21.992;2023-02-12T08:30:46;101081.34;;;0.16;76.37
50710;BME280;37033;49.994;21.992;2023-02-12T08:33:35;101081.68;;;0.18;76.35
50710;BME280;37033;49.994;21.992;2023-02-12T08:36:28;101084.89;;;0.19;76.44
50710;BME280;37033;49.994;21.992;2023-02-12T08:39:18;101093.77;;;0.22;76.46
50710;BME280;37033;49.994;21.992;2023-02-12T08:42:08;101101.19;;;0.22;75.58
50710;BME280;37033;49.994;21.992;2023-02-12T08:44:57;101100.39;;;0.21;75.62
50710;BME280;37033;49.994;21.992;2023-02-12T08:47:49;101099.98;;;0.22;75.76
50710;BME280;37033;49.994;21.992;2023-02-12T08:50:38;101103.30;;;0.25;75.87
50710;BME280;37033;49.994;21.992;2023-02-12T08:53:28;101101.75;;;0.28;75.81
50710;BME280;37033;49.994;21.992;2023-02-12T08:56:18;101109.10;;;0.32;75.37
50710;BME280;37033;49.994;21.992;2023-02-12T08:59:09;101107.55;;;0.33;74.99
50710;BME280;37033;49.994;21.992;2023-02-12T09:01:59;101107.91;;;0.35;74.89
50710;BME280;37033;49.994;21.992;2023-02-12T09:04:49;101114.33;;;0.37;75.25
50710;BME280;37033;49.994;21.992;2023-02-12T09:07:38;101123.27;;;0.41;74.81
50710;BME280;37033;49.994;21.992;2023-02-12T09:10:28;101126.08;;;0.42;73.74
50710;BME280;37033;49.994;21.992;2023-02-12T09:13:18;101134.08;;;0.40;73.61
50710;BME280;37033;49.994;21.992;2023-02-12T09:16:08;101136.49;;;0.41;73.78
50710;BME280;37033;49.994;21.992;2023-02-12T09:18:58;101138.30;;;0.43;74.10
50710;BME280;37033;49.994;21.992;2023-02-12T09:21:51;101145.32;;;0.46;74.33
50710;BME280;37033;49.994;21.992;2023-02-12T09:24:41;101146.42;;;0.50;74.47
50710;BME280;37033;49.994;21.992;2023-02-12T09:27:30;101151.71;;;0.54;74.48
50710;BME280;37033;49.994;21.992;2023-02-12T09:30:20;101152.70;;;0.57;74.21
50710;BME280;37033;49.994;21.992;2023-02-12T09:33:11;101158.71;;;0.60;74.23
50710;BME280;37033;49.994;21.992;2023-02-12T09:36:03;101160.27;;;0.63;74.07
50710;BME280;37033;49.994;21.992;2023-02-12T09:38:53;101160.10;;;0.65;74.13
50710;BME280;37033;49.994;21.992;2023-02-12T09:42:08;101165.35;;;0.68;74.09
50710;BME280;37033;49.994;21.992;2023-02-12T09:45:09;101174.67;;;0.72;73.78
50710;BME280;37033;49.994;21.992;2023-02-12T09:48:14;101173.86;;;0.75;74.28
50710;BME280;37033;49.994;21.992;2023-02-12T09:51:08;101173.10;;;0.82;73.62
50710;BME280;37033;49.994;21.992;2023-02-12T09:54:02;101175.16;;;0.87;73.81
50710;BME280;37033;49.994;21.992;2023-02-12T09:56:55;101168.39;;;0.90;73.44
50710;BME280;37033;49.994;21.992;2023-02-12T09:59:48;101172.34;;;0.96;73.88
50710;BME280;37033;49.994;21.992;2023-02-12T10:02:40;101173.29;;;1.04;74.11
50710;BME280;37033;49.994;21.992;2023-02-12T10:05:32;101173.52;;;1.11;73.71
50710;BME280;37033;49.994;21.992;2023-02-12T10:08:40;101173.73;;;1.13;73.02
50710;BME280;37033;49.994;21.992;2023-02-12T10:11:44;101167.73;;;1.14;73.32
50710;BME280;37033;49.994;21.992;2023-02-12T10:15:01;101168.08;;;1.18;73.01
50710;BME280;37033;49.994;21.992;2023-02-12T10:18:04;101167.91;;;1.20;72.07
50710;BME280;37033;49.994;21.992;2023-02-12T10:21:01;101176.06;;;1.21;72.04
50710;BME280;37033;49.994;21.992;2023-02-12T10:24:07;101181.00;;;1.22;72.14
50710;BME280;37033;49.994;21.992;2023-02-12T10:27:04;101184.96;;;1.25;72.51
50710;BME280;37033;49.994;21.992;2023-02-12T10:29:56;101193.71;;;1.33;72.90
50710;BME280;37033;49.994;21.992;2023-02-12T10:32:48;101191.04;;;1.39;72.95
50710;BME280;37033;49.994;21.992;2023-02-12T10:35:44;101192.95;;;1.46;72.79
50710;BME280;37033;49.994;21.992;2023-02-12T10:38:41;101193.12;;;1.50;72.47
50710;BME280;37033;49.994;21.992;2023-02-12T10:41:34;101199.41;;;1.53;72.27
50710;BME280;37033;49.994;21.992;2023-02-12T10:44:26;101204.64;;;1.55;72.16
50710;BME280;37033;49.994;21.992;2023-02-12T10:47:19;101207.35;;;1.55;71.42
50710;BME280;37033;49.994;21.992;2023-02-12T10:50:19;101203.23;;;1.53;71.65
50710;BME280;37033;49.994;21.992;2023-02-12T10:53:15;101206.98;;;1.55;71.63
50710;BME280;37033;49.994;21.992;2023-02-12T10:56:12;101209.84;;;1.59;72.00
50710;BME280;37033;49.994;21.992;2023-02-12T10:59:04;101212.90;;;1.63;71.53
50710;BME280;37033;49.994;21.992;2023-02-12T11:01:54;101211.38;;;1.64;71.37
50710;BME280;37033;49.994;21.992;2023-02-12T11:04:43;101205.52;;;1.63;70.48
50710;BME280;37033;49.994;21.992;2023-02-12T11:07:48;101206.33;;;1.60;70.16
50710;BME280;37033;49.994;21.992;2023-02-12T11:10:39;101208.59;;;1.58;70.12
50710;BME280;37033;49.994;21.992;2023-02-12T11:13:30;101211.50;;;1.60;70.25
50710;BME280;37033;49.994;21.992;2023-02-12T11:16:29;101206.97;;;1.59;69.88
50710;BME280;37033;49.994;21.992;2023-02-12T11:19:22;101208.80;;;1.59;70.19
50710;BME280;37033;49.994;21.992;2023-02-12T11:22:13;101209.47;;;1.61;70.49
50710;BME280;37033;49.994;21.992;2023-02-12T11:25:17;101211.66;;;1.65;70.26
50710;BME280;37033;49.994;21.992;2023-02-12T11:28:16;101217.79;;;1.64;70.21
50710;BME280;37033;49.994;21.992;2023-02-12T11:31:22;101216.77;;;1.63;70.14
50710;BME280;37033;49.994;21.992;2023-02-12T11:34:17;101216.09;;;1.65;70.64
50710;BME280;37033;49.994;21.992;2023-02-12T11:37:15;101216.94;;;1.69;71.07
50710;BME280;37033;49.994;21.992;2023-02-12T11:40:10;101218.35;;;1.75;70.58
50710;BME280;37033;49.994;21.992;2023-02-12T11:43:05;101212.89;;;1.74;70.04
50710;BME280;37033;49.994;21.992;2023-02-12T11:45:56;101209.05;;;1.73;70.25
50710;BME280;37033;49.994;21.992;2023-02-12T11:48:47;101209.77;;;1.75;70.58
50710;BME280;37033;49.994;21.992;2023-02-12T11:51:38;101210.23;;;1.81;70.68
50710;BME280;37033;49.994;21.992;2023-02-12T11:54:29;101214.95;;;1.84;70.52
50710;BME280;37033;49.994;21.992;2023-02-12T11:57:38;101222.92;;;1.86;70.66
50710;BME280;37033;49.994;21.992;2023-02-12T12:00:34;101226.77;;;1.87;70.55
50710;BME280;37033;49.994;21.992;2023-02-12T12:03:29;101234.48;;;1.89;70.31
50710;BME280;37033;49.994;21.992;2023-02-12T12:06:32;101241.04;;;1.89;70.44
50710;BME280;37033;49.994;21.992;2023-02-12T12:09:25;101241.36;;;1.90;70.54
50710;BME280;37033;49.994;21.992;2023-02-12T12:12:22;101233.82;;;1.94;70.77
50710;BME280;37033;49.994;21.992;2023-02-12T12:15:18;101226.79;;;1.99;70.29
50710;BME280;37033;49.994;21.992;2023-02-12T12:18:33;101230.31;;;2.01;70.37
50710;BME280;37033;49.994;21.992;2023-02-12T12:21:47;101227.90;;;2.04;70.46
50710;BME280;37033;49.994;21.992;2023-02-12T12:24:47;101233.71;;;2.07;70.37
50710;BME280;37033;49.994;21.992;2023-02-12T12:27:49;101230.02;;;2.12;70.52
50710;BME280;37033;49.994;21.992;2023-02-12T12:31:02;101224.15;;;2.14;69.94
50710;BME280;37033;49.994;21.992;2023-02-12T12:33:59;101221.74;;;2.09;69.25
50710;BME280;37033;49.994;21.992;2023-02-12T12:37:03;101218.36;;;2.03;69.58
50710;BME280;37033;49.994;21.992;2023-02-12T12:40:11;101219.00;;;2.02;69.85
50710;BME280;37033;49.994;21.992;2023-02-12T12:43:07;101218.30;;;2.02;69.30
50710;BME280;37033;49.994;21.992;2023-02-12T12:46:23;101225.98;;;1.94;69.29
50710;BME280;37033;49.994;21.992;2023-02-12T12:49:44;101219.63;;;1.93;69.53
50710;BME280;37033;49.994;21.992;2023-02-12T12:52:56;101221.23;;;1.91;69.39
50710;BME280;37033;49.994;21.992;2023-02-12T12:56:02;101224.48;;;1.91;69.07
50710;BME280;37033;49.994;21.992;2023-02-12T12:59:07;101219.64;;;1.87;69.21
50710;BME280;37033;49.994;21.992;2023-02-12T13:02:28;101223.44;;;1.87;69.82
50710;BME280;37033;49.994;21.992;2023-02-12T13:09:12;101223.57;;;1.83;68.79
50710;BME280;37033;49.994;21.992;2023-02-12T13:12:29;101231.83;;;1.76;68.80
50710;BME280;37033;49.994;21.992;2023-02-12T13:15:30;101233.91;;;1.73;69.04
50710;BME280;37033;49.994;21.992;2023-02-12T13:18:30;101237.79;;;1.76;69.42
50710;BME280;37033;49.994;21.992;2023-02-12T13:21:36;101238.93;;;1.79;68.61
50710;BME280;37033;49.994;21.992;2023-02-12T13:24:34;101237.16;;;1.77;68.47
50710;BME280;37033;49.994;21.992;2023-02-12T13:27:27;101235.73;;;1.74;68.53
50710;BME280;37033;49.994;21.992;2023-02-12T13:30:25;101237.55;;;1.73;68.55
50710;BME280;37033;49.994;21.992;2023-02-12T13:33:19;101235.46;;;1.72;68.70
50710;BME280;37033;49.994;21.992;2023-02-12T13:36:11;101233.41;;;1.71;68.62
50710;BME280;37033;49.994;21.992;2023-02-12T13:39:06;101235.12;;;1.72;68.79
50710;BME280;37033;49.994;21.992;2023-02-12T13:42:07;101232.19;;;1.72;68.72
50710;BME280;37033;49.994;21.992;2023-02-12T13:45:06;101238.27;;;1.75;69.04
50710;BME280;37033;49.994;21.992;2023-02-12T13:48:21;101244.75;;;1.78;68.66
50710;BME280;37033;49.994;21.992;2023-02-12T13:51:22;101248.07;;;1.73;67.28
50710;BME280;37033;49.994;21.992;2023-02-12T13:54:28;101250.92;;;1.65;67.11
50710;BME280;37033;49.994;21.992;2023-02-12T13:57:20;101251.22;;;1.62;67.13
50710;BME280;37033;49.994;21.992;2023-02-12T14:03:43;101247.08;;;1.62;67.15
50710;BME280;37033;49.994;21.992;2023-02-12T14:06:33;101243.89;;;1.58;67.31
50710;BME280;37033;49.994;21.992;2023-02-12T14:09:29;101236.02;;;1.56;67.32
50710;BME280;37033;49.994;21.992;2023-02-12T14:12:29;101238.84;;;1.56;67.55
50710;BME280;37033;49.994;21.992;2023-02-12T14:15:29;101237.11;;;1.57;67.42
50710;BME280;37033;49.994;21.992;2023-02-12T14:18:29;101240.91;;;1.57;67.56
50710;BME280;37033;49.994;21.992;2023-02-12T14:21:41;101246.09;;;1.55;67.60
50710;BME280;37033;49.994;21.992;2023-02-12T14:24:49;101240.50;;;1.52;67.70
50710;BME280;37033;49.994;21.992;2023-02-12T14:27:44;101238.67;;;1.50;67.52
50710;BME280;37033;49.994;21.992;2023-02-12T14:30:34;101240.59;;;1.49;67.75
50710;BME280;37033;49.994;21.992;2023-02-12T14:33:26;101239.34;;;1.45;67.73
50710;BME280;37033;49.994;21.992;2023-02-12T14:36:34;101238.09;;;1.41;67.90
50710;BME280;37033;49.994;21.992;2023-02-12T14:39:30;101241.65;;;1.36;67.77
50710;BME280;37033;49.994;21.992;2023-02-12T14:42:51;101240.86;;;1.31;68.08
50710;BME280;37033;49.994;21.992;2023-02-12T14:45:42;101252.94;;;1.30;68.10
50710;BME280;37033;49.994;21.992;2023-02-12T14:48:49;101249.46;;;1.25;67.91
50710;BME280;37033;49.994;21.992;2023-02-12T14:51:44;101257.09;;;1.17;67.99
50710;BME280;37033;49.994;21.992;2023-02-12T14:54:42;101259.20;;;1.14;67.96
50710;BME280;37033;49.994;21.992;2023-02-12T14:57:34;101260.02;;;1.10;68.35
50710;BME280;37033;49.994;21.992;2023-02-12T15:00:27;101265.57;;;1.08;68.29
50710;BME280;37033;49.994;21.992;2023-02-12T15:03:24;101269.11;;;1.05;68.45
50710;BME280;37033;49.994;21.992;2023-02-12T15:06:18;101263.59;;;1.03;68.78
50710;BME280;37033;49.994;21.992;2023-02-12T15:09:10;101258.97;;;1.02;68.66
50710;BME280;37033;49.994;21.992;2023-02-12T15:12:09;101263.20;;;0.98;68.74
50710;BME280;37033;49.994;21.992;2023-02-12T15:15:05;101263.30;;;0.95;68.92
50710;BME280;37033;49.994;21.992;2023-02-12T15:18:03;101262.30;;;0.92;69.01